• Join FlightAware (Why Join?)
  • Login
  • US Flag 
04:27PM EDT


 

Airport Tracker/Info


-or-


 

Live Flight TrackerFlight Track Log ✈ PDT4166 ✈ 17-Jun-2013 ✈ KPHL - KSYR

Flight Track Log - Related Links

Times and Time Zones

All times are in EDT time to prevent confusion due to time zone crossing. See the PDT4166 flight status page for this flight to view local times or setup timezone preferences in your user account.

Time Position Orientation Groundspeed Altitude Reporting Facility
EDT Latitude Longitude Course Direction KTS MPH feet Rate Location/Type
05:11PM 39.9000 -75.2333 303° West 121 139 600  Level Philadelphia TRACON
05:11PM 39.9167 -75.2667 303° West 121 139 1,500 1,320 Climbing Philadelphia TRACON
05:12PM 39.9333 -75.3000 303° West 150 173 2,900 1,200 Climbing Philadelphia TRACON
05:13PM 39.9667 -75.3000 360° North 164 189 3,800 1,200 Climbing Philadelphia TRACON
05:14PM 40.0167 -75.3167 346° North 165 190 5,200 1,320 Climbing Philadelphia TRACON
05:15PM 40.0500 -75.3500 323° Northwest 158 182 6,500 1,140 Climbing Philadelphia TRACON
05:16PM 40.0839 -75.3803 326° Northwest 168 193 7,300 1,080 Climbing New York Center
05:17PM 40.1158 -75.4150 320° Northwest 162 186 8,500 900 Climbing New York Center
05:18PM 40.1433 -75.4575 310° West 168 193 9,100 300 Climbing New York Center
05:19PM 40.1828 -75.5144 312° West 196 226 9,100 660 Level New York Center
05:20PM 40.2211 -75.5497 325° Northwest 202 232 10,500 1,260 Climbing New York Center
05:21PM 40.2522 -75.6008 309° West 175 201 11,700 720 Climbing New York Center
05:22PM 40.2792 -75.6544 303° West 164 189 12,000 120 Climbing New York Center
05:23PM 40.3186 -75.7064 315° West 185 213 12,000 480 Level New York Center
05:24PM 40.3503 -75.7494 314° West 195 224 13,000 900 Climbing New York Center
05:25PM 40.3817 -75.7953 312° West 179 206 13,800 840 Climbing New York Center
05:26PM 40.4150 -75.8442 312° West 169 194 14,700 900 Climbing New York Center
05:27PM 40.4422 -75.8897 308° West 169 194 15,600 660 Climbing New York Center
05:28PM 40.4672 -75.9353 306° West 169 194 16,000 180 Climbing New York Center
05:29PM 40.5064 -75.9956 311° West 180 207 16,000  Level New York Center
05:30PM 40.5372 -76.0525 305° West 196 226 16,000  Level New York Center
05:31PM 40.5742 -76.1100 310° West 206 237 16,000  Level New York Center
05:32PM 40.6150 -76.1761 309° West 211 243 16,000  Level New York Center
05:33PM 40.6567 -76.2231 319° Northwest 211 243 16,000  Level New York Center
05:34PM 40.7214 -76.2200 North 199 229 16,100  Climbing New York Center
05:35PM 40.7797 -76.2219 359° North 218 251 16,100  Level New York Center
05:36PM 40.8508 -76.2111 North 233 268 16,100  Level New York Center
05:37PM 40.9156 -76.2108 360° North 233 268 16,100  Level New York Center
05:38PM 40.9803 -76.2106 360° North 233 268 16,100  Level New York Center
05:39PM 41.0422 -76.2181 355° North 233 268 16,100 -60 Level New York Center
05:40PM 41.1089 -76.2181 360° North 233 268 16,000 -60 Descending New York Center
05:41PM 41.1675 -76.2144 North 233 268 16,000  Level New York Center
05:42PM 41.2342 -76.2117 North 233 268 16,000  Level New York Center
05:43PM 41.3025 -76.2225 353° North 233 268 16,000  Level New York Center
05:44PM 41.3694 -76.2169 North 233 268 16,000  Level New York Center
05:45PM 41.4364 -76.2114 North 233 268 16,000  Level New York Center
05:46PM 41.4947 -76.2133 359° North 233 268 16,000  Level New York Center
05:47PM 41.5611 -76.2131 360° North 233 268 16,000  Level New York Center
05:48PM 41.6322 -76.2078 North 233 268 16,100 -180 Climbing New York Center
05:49PM 41.7011 -76.2078 360° North 233 268 15,700 -600 Descending New York Center
05:50PM 41.7739 -76.2111 358° North 243 280 15,000 -780 Descending New York Center
05:51PM 41.8406 -76.2081 North 263 303 14,200 -840 Descending New York Center
05:52PM 41.9133 -76.2114 358° North 263 303 13,400 -840 Descending New York Center
05:53PM 41.9942 -76.2181 356° North 263 303 12,500 -780 Descending New York Center
05:54PM 42.0631 -76.2125 North 263 303 11,900 -720 Descending New York Center
05:55PM 42.1361 -76.2072 North 268 308 11,100 -480 Descending New York Center
05:56PM 42.2050 -76.2047 North 262 302 11,000  Descending New York Center
05:57PM 42.2714 -76.2100 357° North 248 285 11,100  Climbing New York Center
05:59PM 42.4106 -76.2142 359° North 239 275 11,000 -60 Descending Boston Center
06:00PM 42.4750 -76.2239 354° North 235 270 11,000  Level Boston Center
06:01PM 42.5394 -76.2250 359° North 236 272 11,100  Climbing Boston Center
06:02PM 42.6106 -76.2181 North 237 273 11,000 -420 Descending Boston Center
06:03PM 42.6764 -76.1825 22° Northeast 270 311 10,300 -900 Descending Boston Center
06:04PM 42.7428 -76.1328 29° Northeast 274 315 9,300 -1,020 Descending Boston Center
06:05PM 42.8086 -76.0914 25° Northeast 269 310 8,300 -1,080 Descending Boston Center
06:06PM 42.8767 -76.0472 25° Northeast 266 306 7,200 -1,200 Descending Boston Center
06:07PM 42.9406 -76.0111 22° Northeast 245 282 5,900 -1,320 Descending Boston Center
06:08PM 43.0017 -75.9864 16° North 228 262 4,600 -1,500 Descending Boston Center
06:09PM 43.0603 -75.9783 North 187 215 2,900 -1,380 Descending Boston Center
06:10PM 43.1097 -75.9956 346° North 147 169 1,800 -720 Descending Boston Center
06:11PM 43.1086 -76.0381 268° West 104 120 1,400 -420 Descending Boston Center